Terminal Aerodrome Forecast
Issued by NWS Corpus Christi, TX

Home | Current Version | Previous Version | Text Only | Print | Product List | Glossary On
Versions: 1 2 3 4 5 6 7 8 9 10 11 12 13 14 15 16 17 18 19 20 21 22 23
000
FTUS44 KCRP 191725
TAFVCT
TAF
KVCT 191725Z 1918/2018 23008KT P6SM SCT015
     FM200300 35005KT P6SM BKN025
     FM200800 36014KT P6SM OVC015
     FM201400 03012KT P6SM BKN025=

USA.gov is the U.S. government's official web portal to all federal, state and local government web resources and services.